Hlavní strana
METAR-TAF:

METAR-TAF

Letiště :

Marianna Municipal Airport

Marianna, Florida, Spojené státy americké

zeměpisná šířka: 30-50-12N, zeměpisná délka: 085-11-01W, výška: 34 m

Aktuální stav počasí

Zpráva byla vytvořena před 1 hodinou a 9 minutami, v 00:53 UTC
Jižní vítr 10 kt
Teplota 18°C
Vlhkost vzduchu 88%
Tlak 1022 hPa
Viditelnost: 14.5 km
Skoro jasno ve výšce 5000 ft
Polojasno ve výšce 7000 ft
Zataženo ve výšce 9000 ft
slabý déšť

METAR: KMAI 190053Z AUTO 17010KT 9SM -RA FEW050 SCT070 OVC090 18/16 A3017 RMK AO2 SLP216 P0029 T01780161

Čas: 20:02 (02:02 UTC)


TAF: chybějící

Stav a předpovědi počasí z více než 4 000 letišť (zprávy METAR a TAF).

Červené a žluté tečky na mapě představují dostupné meteorologické stanice.

Když kurzor umístíte na tečku, zobrazí se název stanice.

Pak kliknutím zobrazíte stav a předpověď počasí.

Chcete-li změnit mapu, kliknutím na zelené tlačítko se znaménkem +mapu přiblížíte, kliknutím na zelené tlačítko se znaménkem – mapu oddálíte a kliknutím na zelené šipky přejdete na sousední mapy.


METAR-TAF: